Flight Track Log - Related Links

Times and Time Zones

All times are in EDT time to prevent confusion due to time zone crossing. See the EJA951 flight status page for this flight to view local times or setup timezone preferences in your user account.

Time Position Orientation Groundspeed Altitude Reporting Facility
EDT Latitude Longitude Course Direction KTS MPH feet Rate Location/Type
Sat 07:57:29 AM 40.0036 -82.9156 268° West 168 193 1,600  Level Indianapolis Center
Sat 07:58:04 AM 40.0031 -82.9419 268° West 178 205 3,100 3,402 Climbing Indianapolis Center
Sat 07:59:06 AM 40.0031 -83.0303 270° West 196 226 7,100 3,561 Climbing Indianapolis Center
Sat 08:00:07 AM 40.0100 -83.1169 276° West 230 265 10,400 2,410 Climbing Indianapolis Center
Sat 08:01:08 AM 40.0453 -83.2075 297° West 276 318 12,000 2,293 Climbing Indianapolis Center
Sat 08:02:10 AM 40.0858 -83.2997 300° West 292 336 15,100 2,488 Climbing Indianapolis Center
Sat 08:03:11 AM 40.1189 -83.3964 294° West 294 338 17,100 1,967 Climbing Indianapolis Center
Sat 08:04:12 AM 40.1408 -83.5039 285° West 304 350 19,100 2,000 Climbing Indianapolis Center
Sat 08:05:14 AM 40.1642 -83.6150 285° West 315 362 21,200 2,341 Climbing Indianapolis Center
Sat 08:06:15 AM 40.1939 -83.7558 285° West 331 381 23,900 2,361 Climbing Indianapolis Center
Sat 08:07:16 AM 40.2183 -83.8761 285° West 340 391 26,000 1,951 Climbing Indianapolis Center
Sat 08:08:18 AM 40.2436 -84.0017 285° West 353 406 27,900 1,756 Climbing Indianapolis Center
Sat 08:09:19 AM 40.2794 -84.1281 290° West 367 422 29,600 1,721 Climbing Indianapolis Center
Sat 08:10:20 AM 40.3342 -84.2489 301° West 381 438 31,400 1,951 Climbing Indianapolis Center
Sat 08:11:22 AM 40.3883 -84.3711 300° West 387 445 33,600 2,098 Climbing Indianapolis Center
Sat 08:12:23 AM 40.4406 -84.4908 300° West 386 444 35,700 1,672 Climbing Indianapolis Center
Sat 08:13:24 AM 40.4908 -84.6144 298° West 384 442 37,000 1,415 Climbing Indianapolis Center
Sat 08:14:26 AM 40.5286 -84.7742 287° West 385 443 38,600 1,171 Climbing Indianapolis Center
Sat 08:15:27 AM 40.5533 -84.9125 283° West 387 445 39,400 689 Climbing Indianapolis Center
Sat 08:16:28 AM 40.5786 -85.0531 283° West 393 452 40,000 310 Climbing Indianapolis Center
Sat 08:17:23 AM 40.6017 -85.1864 283° West 402 463 40,000  Level Chicago Center
Sat 08:18:25 AM 40.6286 -85.3381 283° West 420 483 40,000  Level Chicago Center
Sat 08:19:26 AM 40.6536 -85.4942 282° West 430 495 40,000  Level Chicago Center
Sat 08:20:28 AM 40.6811 -85.6494 283° West 432 497 40,000  Level Chicago Center
Sat 08:21:29 AM 40.7069 -85.8061 282° West 435 501 40,000  Level Chicago Center
Sat 08:22:30 AM 40.7328 -85.9625 282° West 436 502 40,000  Level Chicago Center
Sat 08:23:32 AM 40.7594 -86.1194 283° West 436 502 40,000  Level Chicago Center
Sat 08:24:33 AM 40.7842 -86.2778 282° West 437 503 40,000  Level Chicago Center
Sat 08:25:35 AM 40.8150 -86.4658 282° West 437 503 40,000  Level Chicago Center
Sat 08:26:36 AM 40.8400 -86.6247 282° West 438 504 40,000  Level Chicago Center
Sat 08:27:37 AM 40.8633 -86.7769 282° West 440 506 40,000  Level Chicago Center
Sat 08:28:39 AM 40.8889 -86.9367 282° West 442 509 40,000  Level Chicago Center
Sat 08:29:40 AM 40.9125 -87.0950 281° West 442 509 40,000  Level Chicago Center
Sat 08:30:42 AM 40.9386 -87.2542 282° West 443 510 40,000  Level Chicago Center
Sat 08:31:43 AM 40.9675 -87.4453 281° West 443 510 40,000  Level Chicago Center
Sat 08:32:45 AM 40.9906 -87.6044 281° West 442 509 40,000  Level Chicago Center
Sat 08:33:46 AM 41.0153 -87.7647 282° West 442 509 40,000  Level Chicago Center
Sat 08:34:48 AM 41.0400 -87.9247 282° West 441 507 40,000  Level Chicago Center
Sat 08:35:49 AM 41.0639 -88.0847 281° West 441 507 40,000  Level Chicago Center
Sat 08:36:51 AM 41.0869 -88.2458 281° West 441 507 40,000  Level Chicago Center
Sat 08:37:52 AM 41.1100 -88.4056 281° West 440 506 40,000  Level Chicago Center
Sat 08:38:54 AM 41.1319 -88.5639 280° West 438 504 40,000  Level Chicago Center
Sat 08:39:55 AM 41.1539 -88.7228 280° West 436 502 40,000  Level Chicago Center
Sat 08:40:57 AM 41.1778 -88.8842 281° West 442 509 40,000  Level Chicago Center
Sat 08:41:58 AM 41.2000 -89.0456 280° West 447 514 40,000  Level Chicago Center
Sat 08:43:00 AM 41.2228 -89.2197 280° West 442 509 40,000  Level Chicago Center
Sat 08:44:01 AM 41.2444 -89.3797 280° West 442 509 40,000  Level Chicago Center
Sat 08:45:03 AM 41.2656 -89.5386 280° West 442 509 40,000  Level Chicago Center
Sat 08:46:04 AM 41.2864 -89.6969 280° West 440 506 40,000  Level Chicago Center
Sat 08:47:06 AM 41.3117 -89.8861 280° West 438 504 40,000  Level Chicago Center
Sat 08:48:07 AM 41.3319 -90.0444 280° West 438 504 40,000  Level Chicago Center
Sat 08:49:09 AM 41.3525 -90.2025 280° West 437 503 40,000  Level Chicago Center
Sat 08:50:10 AM 41.3719 -90.3594 279° West 436 502 40,000  Level Chicago Center
Sat 08:51:12 AM 41.3919 -90.5178 280° West 435 501 40,000  Level Chicago Center
Sat 08:52:13 AM 41.4092 -90.6806 278° West 446 513 40,000  Level Chicago Center
Sat 08:53:15 AM 41.4286 -90.8414 279° West 445 512 40,000  Level Chicago Center
Sat 08:54:16 AM 41.4533 -91.0292 280° West 434 499 40,000  Level Chicago Center
Sat 08:55:18 AM 41.4711 -91.1906 278° West 437 503 40,000  Level Chicago Center
Sat 08:56:19 AM 41.4875 -91.3289 279° West 437 503 40,000  Level Chicago Center
Sat 08:57:21 AM 41.5083 -91.5225 278° West 438 504 40,000  Level Chicago Center
Sat 08:58:22 AM 41.5139 -91.6808 273° West 437 503 40,000  Level Chicago Center
Sat 08:59:24 AM 41.4981 -91.8394 262° West 436 502 40,000  Level Chicago Center
Sat 09:00:26 AM 41.4833 -91.9997 263° West 436 502 40,000  Level Chicago Center
Sat 09:01:28 AM 41.4672 -92.1578 262° West 435 501 40,000  Level Chicago Center
Sat 09:02:29 AM 41.4522 -92.3183 263° West 437 503 40,000  Level Chicago Center
Sat 09:03:31 AM 41.4333 -92.4925 262° West 437 503 40,000  Level Chicago Center
Sat 09:04:32 AM 41.4183 -92.6508 263° West 437 503 40,000  Level Chicago Center
Sat 09:05:34 AM 41.4011 -92.8103 262° West 437 503 40,000  Level Chicago Center
Sat 09:06:37 AM 41.3808 -93.0025 262° West 436 502 40,000  Level Minneapolis Center
Sat 09:07:38 AM 41.3642 -93.1617 262° West 437 503 40,000  Level Minneapolis Center
Sat 09:08:39 AM 41.3475 -93.3231 262° West 438 504 40,000  Level Minneapolis Center
Sat 09:09:40 AM 41.3289 -93.4817 261° West 441 507 40,000  Level Minneapolis Center
Sat 09:10:41 AM 41.3106 -93.6433 261° West 441 507 40,000  Level Minneapolis Center
Sat 09:11:42 AM 41.2933 -93.8039 262° West 441 507 40,000  Level Minneapolis Center
Sat 09:12:43 AM 41.2753 -93.9636 261° West 441 507 40,000  Level Minneapolis Center
Sat 09:13:45 AM 41.2528 -94.1572 261° West 443 510 40,000  Level Minneapolis Center
Sat 09:14:46 AM 41.2361 -94.3075 262° West 444 511 40,000  Level Minneapolis Center
Sat 09:16:48 AM 41.1961 -94.6328 261° West 444 511 40,000  Level Minneapolis Center
Sat 09:17:49 AM 41.1772 -94.7956 261° West 444 511 40,000  Level Minneapolis Center
Sat 09:18:50 AM 41.1583 -94.9583 261° West 445 512 40,000  Level Minneapolis Center
Sat 09:19:52 AM 41.1381 -95.1231 261° West 448 516 40,000  Level Minneapolis Center
Sat 09:20:53 AM 41.1172 -95.2856 260° West 448 516 40,000  Level Minneapolis Center
Sat 09:21:54 AM 41.0919 -95.4831 260° West 448 516 40,000  Level Minneapolis Center
Sat 09:22:55 AM 41.0708 -95.6461 260° West 448 516 40,000  Level Minneapolis Center
Sat 09:23:56 AM 41.0494 -95.8089 260° West 448 516 40,000  Level Minneapolis Center
Sat 09:24:57 AM 41.0292 -95.9722 261° West 447 514 40,000  Level Minneapolis Center
Sat 09:25:58 AM 41.0069 -96.1350 260° West 447 514 40,000  Level Minneapolis Center
Sat 09:27:00 AM 40.9847 -96.2975 260° West 447 514 40,000  Level Minneapolis Center
Sat 09:28:01 AM 40.9633 -96.4583 260° West 446 513 40,000  Level Minneapolis Center
Sat 09:29:02 AM 40.9411 -96.6192 260° West 446 513 40,000 49 Level Minneapolis Center
Sat 09:30:03 AM 40.9186 -96.7794 260° West 445 512 40,100 443 Climbing Minneapolis Center
Sat 09:31:04 AM 40.9053 -96.9386 264° West 439 505 40,900 787 Climbing Minneapolis Center
Sat 09:32:05 AM 40.8897 -97.0931 262° West 428 493 41,700 787 Climbing Minneapolis Center
Sat 09:33:06 AM 40.8747 -97.2442 263° West 421 484 42,500 634 Climbing Minneapolis Center
Sat 09:34:08 AM 40.8586 -97.4075 263° West 415 478 43,000 244 Climbing Minneapolis Center
Sat 09:35:09 AM 40.8436 -97.5597 263° West 413 475 43,000  Level Minneapolis Center
Sat 09:36:10 AM 40.8283 -97.7161 263° West 420 483 43,000  Level Minneapolis Center
Sat 09:37:11 AM 40.8122 -97.8750 262° West 429 494 43,000  Level Minneapolis Center
Sat 09:38:12 AM 40.7950 -98.0350 262° West 434 499 43,000  Level Minneapolis Center
Sat 09:39:13 AM 40.7778 -98.1967 262° West 439 505 43,000  Level Minneapolis Center
Sat 09:40:14 AM 40.7614 -98.3578 262° West 439 505 43,000  Level Minneapolis Center
Sat 09:41:16 AM 40.7433 -98.5192 262° West 439 505 43,000  Level Minneapolis Center
Sat 09:42:17 AM 40.7256 -98.6803 262° West 439 505 43,000  Level Minneapolis Center
Sat 09:43:18 AM 40.7081 -98.8425 262° West 440 506 43,000  Level Minneapolis Center
Sat 09:44:19 AM 40.6892 -99.0039 261° West 440 506 43,000  Level Minneapolis Center
Sat 09:45:03 AM 40.6750 -99.1336 262° West 441 507 43,000  Level Denver Center
Sat 09:46:04 AM 40.6550 -99.2931 261° West 441 507 43,000  Level Denver Center
Sat 09:47:05 AM 40.6375 -99.4539 262° West 441 507 43,000  Level Denver Center
Sat 09:48:06 AM 40.6172 -99.6139 261° West 441 507 43,000  Level Denver Center
Sat 09:49:07 AM 40.5986 -99.7747 261° West 441 507 43,000  Level Denver Center
Sat 09:50:08 AM 40.5775 -99.9456 261° West 442 509 43,000  Level Denver Center
Sat 09:51:09 AM 40.5592 -100.0986 261° West 442 509 43,000  Level Denver Center
Sat 09:52:10 AM 40.5367 -100.2786 261° West 442 509 43,000  Level Denver Center
Sat 09:53:11 AM 40.5175 -100.4328 261° West 443 510 43,000  Level Denver Center
Sat 09:54:12 AM 40.4978 -100.5875 261° West 443 510 43,000  Level Denver Center
Sat 09:55:14 AM 40.4747 -100.7675 260° West 443 510 43,000  Level Denver Center
Sat 09:56:15 AM 40.4536 -100.9217 260° West 444 511 43,000  Level Denver Center
Sat 09:57:16 AM 40.4358 -101.0761 261° West 444 511 43,000  Level Denver Center
Sat 09:58:17 AM 40.4128 -101.2561 261° West 445 512 43,000  Level Denver Center
Sat 09:59:18 AM 40.3942 -101.4094 261° West 445 512 43,000  Level Denver Center
Sat 10:00:20 AM 40.3742 -101.5617 260° West 445 512 43,000  Level Denver Center
Sat 10:01:21 AM 40.3511 -101.7394 260° West 444 511 43,000  Level Denver Center
Sat 10:02:22 AM 40.3317 -101.8911 261° West 444 511 43,000  Level Denver Center
Sat 10:03:24 AM 40.3086 -102.0681 260° West 442 509 43,000  Level Denver Center
Sat 10:04:25 AM 40.2883 -102.2189 260° West 441 507 43,000  Level Denver Center
Sat 10:05:26 AM 40.2669 -102.3697 260° West 441 507 43,000  Level Denver Center
Sat 10:06:28 AM 40.2442 -102.5453 260° West 441 507 43,000  Level Denver Center
Sat 10:07:29 AM 40.2231 -102.6967 260° West 439 505 43,000  Level Denver Center
Sat 10:08:30 AM 40.2008 -102.8517 259° West 437 503 43,000  Level Denver Center
Sat 10:09:32 AM 40.1800 -103.0086 260° West 438 504 43,000  Level Denver Center
Sat 10:10:33 AM 40.1575 -103.1647 259° West 438 504 43,000  Level Denver Center
Sat 10:11:35 AM 40.1436 -103.3536 265° West 438 504 43,000  Level Denver Center
Sat 10:12:36 AM 40.1308 -103.5078 264° West 434 499 43,000  Level Denver Center
Sat 10:13:38 AM 40.1206 -103.6656 265° West 434 499 43,000  Level Denver Center
Sat 10:14:39 AM 40.1089 -103.8222 264° West 435 501 43,000 -49 Level Denver Center
Sat 10:15:41 AM 40.0972 -103.9769 264° West 435 501 42,900 -1,122 Descending Denver Center
Sat 10:16:42 AM 40.0856 -104.1356 265° West 440 506 40,700 -2,244 Descending Denver Center
Sat 10:17:44 AM 40.0731 -104.2944 264° West 444 511 38,300 -2,419 Descending Denver Center
Sat 10:18:46 AM 40.0586 -104.4783 264° West 433 498 35,700 -2,341 Descending Denver Center
Sat 10:19:47 AM 40.0458 -104.6278 264° West 425 489 33,500 -2,098 Descending Denver Center
Sat 10:20:49 AM 40.0347 -104.7744 264° West 416 479 31,400 -2,029 Descending Denver Center
Sat 10:22:03 AM 40.0325 -104.9464 269° West 403 464 28,900 -1,911 Descending Denver Center
Sat 10:23:04 AM 40.0303 -105.0883 269° West 399 459 27,100 -1,073 Descending Denver Center
Sat 10:24:06 AM 40.0281 -105.2300 269° West 394 453 26,700 -1,016 Descending Denver Center
Sat 10:25:08 AM 40.0253 -105.4089 269° West 410 472 25,000 -1,306 Descending Denver Center
Sat 10:26:10 AM 40.0225 -105.5644 269° West 425 489 24,000 -488 Descending Denver Center
Sat 10:27:11 AM 40.0186 -105.7061 268° West 393 452 24,000 -439 Level Denver Center
Sat 10:28:13 AM 40.0167 -105.8197 269° West 313 360 23,100 -1,161 Descending Denver Center
Sat 10:29:15 AM 40.0144 -105.9200 268° West 280 322 21,600 -1,452 Descending Denver Center
Sat 10:30:17 AM 40.0133 -106.0208 269° West 277 319 20,100 -1,707 Descending Denver Center
Sat 10:31:18 AM 40.0097 -106.1269 267° West 242 278 18,100 -1,707 Descending Denver Center
Sat 10:32:20 AM 40.0092 -106.2006 269° West 232 267 16,600 -1,403 Descending Denver Center
Sat 10:33:22 AM 40.0067 -106.2847 268° West 232 267 15,200 -1,258 Descending Denver Center
Sat 10:34:24 AM 40.0047 -106.3683 268° West 232 267 14,000 -581 Descending Denver Center
Sat 10:35:26 AM 39.9803 -106.4506 249° West 225 259 14,000  Level Denver Center
Sat 10:36:28 AM 39.9186 -106.4772 198° South 227 261 14,000  Level Denver Center
Sat 10:37:29 AM 39.8550 -106.5039 198° South 233 268 14,000  Level Denver Center
Sat 10:38:31 AM 39.7953 -106.5292 198° South 231 266 14,000 -194 Level Denver Center
Sat 10:39:33 AM 39.7331 -106.5556 198° South 231 266 13,600 -871 Descending Denver Center
Sat 10:40:35 AM 39.6878 -106.6081 222° Southwest 230 265 12,200 -1,403 Descending Denver Center
Sat 10:41:37 AM 39.6764 -106.6900 260° West 233 268 10,700 -1,355 Descending Denver Center
Sat 10:42:39 AM 39.6664 -106.7556 259° West 189 217 9,400 -1,113 Descending Denver Center
Sat 10:43:41 AM 39.6581 -106.8067 258° West 157 181 8,400 -1,065 Descending Denver Center
Sat 10:44:43 AM 39.6475 -106.8639 257° West 143 165 7,200 -919 Descending Denver Center
Sat 10:45:45 AM 39.6436 -106.9061 263° West 141 162 6,500 -677 Descending Denver Center

Login

Don't have an account? Register now (free) for customized features, flight alerts, and more!